sensor_id;sensor_type;location;lat;lon;timestamp;temperature;humidity
5358;DHT22;2702;51.014;7.170;2023-03-01T00:01:06;-0.40;99.90
5358;DHT22;2702;51.014;7.170;2023-03-01T00:03:33;-0.40;99.90
5358;DHT22;2702;51.014;7.170;2023-03-01T00:06:00;-0.50;99.90
5358;DHT22;2702;51.014;7.170;2023-03-01T00:08:27;-0.50;99.90
5358;DHT22;2702;51.014;7.170;2023-03-01T00:11:19;-0.50;99.90
5358;DHT22;2702;51.014;7.170;2023-03-01T00:13:46;-0.50;99.90
5358;DHT22;2702;51.014;7.170;2023-03-01T00:16:22;-0.50;99.90
5358;DHT22;2702;51.014;7.170;2023-03-01T00:18:48;-0.50;99.90
5358;DHT22;2702;51.014;7.170;2023-03-01T00:21:14;-0.50;99.90
5358;DHT22;2702;51.014;7.170;2023-03-01T00:23:41;-0.50;99.90
5358;DHT22;2702;51.014;7.170;2023-03-01T00:26:09;-0.50;99.90
5358;DHT22;2702;51.014;7.170;2023-03-01T00:28:36;-0.40;99.90
5358;DHT22;2702;51.014;7.170;2023-03-01T00:31:05;-0.50;99.90
5358;DHT22;2702;51.014;7.170;2023-03-01T00:33:31;-0.50;99.90
5358;DHT22;2702;51.014;7.170;2023-03-01T00:35:59;-0.50;99.90
5358;DHT22;2702;51.014;7.170;2023-03-01T00:38:25;-0.50;99.90
5358;DHT22;2702;51.014;7.170;2023-03-01T00:40:50;-0.60;99.90
5358;DHT22;2702;51.014;7.170;2023-03-01T00:43:16;-0.60;99.90
5358;DHT22;2702;51.014;7.170;2023-03-01T00:45:42;-0.60;99.90
5358;DHT22;2702;51.014;7.170;2023-03-01T00:48:08;-0.60;99.90
5358;DHT22;2702;51.014;7.170;2023-03-01T00:50:34;-0.70;99.90
5358;DHT22;2702;51.014;7.170;2023-03-01T00:52:59;-0.80;99.90
5358;DHT22;2702;51.014;7.170;2023-03-01T00:55:25;-0.80;99.90
5358;DHT22;2702;51.014;7.170;2023-03-01T00:57:51;-0.80;99.90
5358;DHT22;2702;51.014;7.170;2023-03-01T01:00:19;-0.80;99.90
5358;DHT22;2702;51.014;7.170;2023-03-01T01:02:45;-0.80;99.90
5358;DHT22;2702;51.014;7.170;2023-03-01T01:05:12;-0.80;99.90
5358;DHT22;2702;51.014;7.170;2023-03-01T01:07:38;-0.80;99.90
5358;DHT22;2702;51.014;7.170;2023-03-01T01:10:04;-0.70;99.90
5358;DHT22;2702;51.014;7.170;2023-03-01T01:12:30;-0.70;99.90
5358;DHT22;2702;51.014;7.170;2023-03-01T01:14:56;-0.70;99.90
5358;DHT22;2702;51.014;7.170;2023-03-01T01:17:22;-0.70;99.90
5358;DHT22;2702;51.014;7.170;2023-03-01T01:19:48;-0.70;99.90
5358;DHT22;2702;51.014;7.170;2023-03-01T01:22:14;-0.70;99.90
5358;DHT22;2702;51.014;7.170;2023-03-01T01:24:40;-0.70;99.90
5358;DHT22;2702;51.014;7.170;2023-03-01T01:27:06;-0.70;99.90
5358;DHT22;2702;51.014;7.170;2023-03-01T01:29:33;-0.70;99.90
5358;DHT22;2702;51.014;7.170;2023-03-01T01:31:58;-0.70;99.90
5358;DHT22;2702;51.014;7.170;2023-03-01T01:34:24;-0.70;99.90
5358;DHT22;2702;51.014;7.170;2023-03-01T01:36:52;-0.80;99.90
5358;DHT22;2702;51.014;7.170;2023-03-01T01:39:22;-0.80;99.90
5358;DHT22;2702;51.014;7.170;2023-03-01T01:41:48;-0.80;99.90
5358;DHT22;2702;51.014;7.170;2023-03-01T01:44:25;-0.80;99.90
5358;DHT22;2702;51.014;7.170;2023-03-01T01:47:27;-0.70;99.90
5358;DHT22;2702;51.014;7.170;2023-03-01T01:49:50;-0.60;99.90
5358;DHT22;2702;51.014;7.170;2023-03-01T01:52:29;-0.70;99.90
5358;DHT22;2702;51.014;7.170;2023-03-01T01:57:43;-0.80;99.90
5358;DHT22;2702;51.014;7.170;2023-03-01T02:00:14;-0.80;99.90
5358;DHT22;2702;51.014;7.170;2023-03-01T02:02:41;-0.80;99.90
5358;DHT22;2702;51.014;7.170;2023-03-01T02:08:13;-0.80;99.90
5358;DHT22;2702;51.014;7.170;2023-03-01T02:10:40;-0.80;99.90
5358;DHT22;2702;51.014;7.170;2023-03-01T02:13:07;-0.70;99.90
5358;DHT22;2702;51.014;7.170;2023-03-01T02:15:35;-0.70;99.90
5358;DHT22;2702;51.014;7.170;2023-03-01T02:18:02;-0.60;99.90
5358;DHT22;2702;51.014;7.170;2023-03-01T02:20:38;-0.60;99.90
5358;DHT22;2702;51.014;7.170;2023-03-01T02:23:09;-0.60;99.90
5358;DHT22;2702;51.014;7.170;2023-03-01T02:30:40;-0.40;99.90
5358;DHT22;2702;51.014;7.170;2023-03-01T02:33:26;-0.60;99.90
5358;DHT22;2702;51.014;7.170;2023-03-01T02:35:53;-0.70;99.90
5358;DHT22;2702;51.014;7.170;2023-03-01T02:38:21;-0.80;99.90
5358;DHT22;2702;51.014;7.170;2023-03-01T02:40:49;-0.90;99.90
5358;DHT22;2702;51.014;7.170;2023-03-01T02:43:16;-0.90;99.90
5358;DHT22;2702;51.014;7.170;2023-03-01T02:45:50;-1.00;99.90
5358;DHT22;2702;51.014;7.170;2023-03-01T02:48:17;-1.10;99.90
5358;DHT22;2702;51.014;7.170;2023-03-01T02:51:05;-1.20;99.90
5358;DHT22;2702;51.014;7.170;2023-03-01T02:56:13;-1.30;99.90
5358;DHT22;2702;51.014;7.170;2023-03-01T02:58:43;-1.30;99.90
5358;DHT22;2702;51.014;7.170;2023-03-01T03:01:17;-1.30;99.90
5358;DHT22;2702;51.014;7.170;2023-03-01T03:03:44;-1.30;99.90
5358;DHT22;2702;51.014;7.170;2023-03-01T03:06:10;-1.30;99.90
5358;DHT22;2702;51.014;7.170;2023-03-01T03:08:36;-1.30;99.90
5358;DHT22;2702;51.014;7.170;2023-03-01T03:11:03;-1.30;99.90
5358;DHT22;2702;51.014;7.170;2023-03-01T03:13:29;-1.20;99.90
5358;DHT22;2702;51.014;7.170;2023-03-01T03:15:56;-1.30;99.90
5358;DHT22;2702;51.014;7.170;2023-03-01T03:18:23;-1.30;99.90
5358;DHT22;2702;51.014;7.170;2023-03-01T03:20:51;-1.20;99.90
5358;DHT22;2702;51.014;7.170;2023-03-01T03:23:19;-1.10;99.90
5358;DHT22;2702;51.014;7.170;2023-03-01T03:25:49;-1.20;99.90
5358;DHT22;2702;51.014;7.170;2023-03-01T03:28:15;-1.20;99.90
5358;DHT22;2702;51.014;7.170;2023-03-01T03:30:42;-1.30;99.90
5358;DHT22;2702;51.014;7.170;2023-03-01T03:33:10;-1.30;99.90
5358;DHT22;2702;51.014;7.170;2023-03-01T03:35:45;-1.30;99.90
5358;DHT22;2702;51.014;7.170;2023-03-01T03:38:13;-1.30;99.90
5358;DHT22;2702;51.014;7.170;2023-03-01T03:43:45;-1.30;99.90
5358;DHT22;2702;51.014;7.170;2023-03-01T03:46:12;-1.30;99.90
5358;DHT22;2702;51.014;7.170;2023-03-01T03:48:41;-1.30;99.90
5358;DHT22;2702;51.014;7.170;2023-03-01T03:51:14;-1.20;99.90
5358;DHT22;2702;51.014;7.170;2023-03-01T03:53:40;-1.20;99.90
5358;DHT22;2702;51.014;7.170;2023-03-01T03:56:07;-1.30;99.90
5358;DHT22;2702;51.014;7.170;2023-03-01T03:58:33;-1.40;99.90
5358;DHT22;2702;51.014;7.170;2023-03-01T04:00:59;-1.40;99.90
5358;DHT22;2702;51.014;7.170;2023-03-01T04:03:28;-1.40;99.90
5358;DHT22;2702;51.014;7.170;2023-03-01T04:05:56;-1.50;99.90
5358;DHT22;2702;51.014;7.170;2023-03-01T04:08:23;-1.60;99.90
5358;DHT22;2702;51.014;7.170;2023-03-01T04:10:51;-1.70;99.90
5358;DHT22;2702;51.014;7.170;2023-03-01T04:13:21;-1.70;99.90
5358;DHT22;2702;51.014;7.170;2023-03-01T04:15:51;-1.70;99.90
5358;DHT22;2702;51.014;7.170;2023-03-01T04:18:18;-1.80;99.90
5358;DHT22;2702;51.014;7.170;2023-03-01T04:20:45;-1.80;99.90
5358;DHT22;2702;51.014;7.170;2023-03-01T04:23:21;-1.80;99.90
5358;DHT22;2702;51.014;7.170;2023-03-01T04:25:50;-1.80;99.90
5358;DHT22;2702;51.014;7.170;2023-03-01T04:28:22;-1.80;99.90
5358;DHT22;2702;51.014;7.170;2023-03-01T04:30:50;-1.90;99.90
5358;DHT22;2702;51.014;7.170;2023-03-01T04:33:17;-1.80;99.90
5358;DHT22;2702;51.014;7.170;2023-03-01T04:35:43;-1.80;99.90
5358;DHT22;2702;51.014;7.170;2023-03-01T04:38:09;-1.80;99.90
5358;DHT22;2702;51.014;7.170;2023-03-01T04:40:36;-1.80;99.90
5358;DHT22;2702;51.014;7.170;2023-03-01T04:43:03;-1.80;99.90
5358;DHT22;2702;51.014;7.170;2023-03-01T04:45:29;-1.80;99.90
5358;DHT22;2702;51.014;7.170;2023-03-01T04:47:56;-1.90;99.90
5358;DHT22;2702;51.014;7.170;2023-03-01T04:50:24;-1.90;99.90
5358;DHT22;2702;51.014;7.170;2023-03-01T04:52:51;-1.90;99.90
5358;DHT22;2702;51.014;7.170;2023-03-01T04:55:18;-1.90;99.90
5358;DHT22;2702;51.014;7.170;2023-03-01T04:57:44;-1.90;99.90
5358;DHT22;2702;51.014;7.170;2023-03-01T05:00:11;-2.00;99.90
5358;DHT22;2702;51.014;7.170;2023-03-01T05:02:48;-2.00;99.90
5358;DHT22;2702;51.014;7.170;2023-03-01T05:05:15;-2.00;99.90
5358;DHT22;2702;51.014;7.170;2023-03-01T05:07:41;-2.00;99.90
5358;DHT22;2702;51.014;7.170;2023-03-01T05:10:07;-2.00;99.90
5358;DHT22;2702;51.014;7.170;2023-03-01T05:12:33;-2.00;99.90
5358;DHT22;2702;51.014;7.170;2023-03-01T05:14:59;-2.00;99.90
5358;DHT22;2702;51.014;7.170;2023-03-01T05:17:25;-2.00;99.90
5358;DHT22;2702;51.014;7.170;2023-03-01T05:19:51;-2.00;99.90
5358;DHT22;2702;51.014;7.170;2023-03-01T05:22:17;-2.00;99.90
5358;DHT22;2702;51.014;7.170;2023-03-01T05:24:42;-1.90;99.90
5358;DHT22;2702;51.014;7.170;2023-03-01T05:27:08;-1.90;99.90
5358;DHT22;2702;51.014;7.170;2023-03-01T05:29:34;-2.00;99.90
5358;DHT22;2702;51.014;7.170;2023-03-01T05:32:01;-2.00;99.90
5358;DHT22;2702;51.014;7.170;2023-03-01T05:34:33;-2.00;99.90
5358;DHT22;2702;51.014;7.170;2023-03-01T05:37:00;-2.00;99.90
5358;DHT22;2702;51.014;7.170;2023-03-01T05:39:27;-2.00;99.90
5358;DHT22;2702;51.014;7.170;2023-03-01T05:41:55;-2.00;99.90
5358;DHT22;2702;51.014;7.170;2023-03-01T05:44:22;-2.00;99.90
5358;DHT22;2702;51.014;7.170;2023-03-01T05:46:49;-2.00;99.90
5358;DHT22;2702;51.014;7.170;2023-03-01T05:49:15;-2.00;99.90
5358;DHT22;2702;51.014;7.170;2023-03-01T05:51:42;-2.00;99.90
5358;DHT22;2702;51.014;7.170;2023-03-01T05:54:09;-2.00;99.90
5358;DHT22;2702;51.014;7.170;2023-03-01T05:56:36;-2.00;99.90
5358;DHT22;2702;51.014;7.170;2023-03-01T05:59:03;-1.90;99.90
5358;DHT22;2702;51.014;7.170;2023-03-01T06:01:31;-1.90;99.90
5358;DHT22;2702;51.014;7.170;2023-03-01T06:03:57;-1.90;99.90
5358;DHT22;2702;51.014;7.170;2023-03-01T06:06:23;-1.90;99.90
5358;DHT22;2702;51.014;7.170;2023-03-01T06:08:50;-1.90;99.90
5358;DHT22;2702;51.014;7.170;2023-03-01T06:11:16;-1.90;99.90
5358;DHT22;2702;51.014;7.170;2023-03-01T06:13:43;-1.80;99.90
5358;DHT22;2702;51.014;7.170;2023-03-01T06:16:09;-1.90;99.90
5358;DHT22;2702;51.014;7.170;2023-03-01T06:18:35;-1.90;99.90
5358;DHT22;2702;51.014;7.170;2023-03-01T06:21:01;-1.90;99.90
5358;DHT22;2702;51.014;7.170;2023-03-01T06:23:27;-1.90;99.90
5358;DHT22;2702;51.014;7.170;2023-03-01T06:25:53;-1.90;99.90
5358;DHT22;2702;51.014;7.170;2023-03-01T06:28:19;-1.90;99.90
5358;DHT22;2702;51.014;7.170;2023-03-01T06:30:45;-1.90;99.90
5358;DHT22;2702;51.014;7.170;2023-03-01T06:33:11;-1.90;99.90
5358;DHT22;2702;51.014;7.170;2023-03-01T06:35:37;-1.80;99.90
5358;DHT22;2702;51.014;7.170;2023-03-01T06:38:04;-1.80;99.90
5358;DHT22;2702;51.014;7.170;2023-03-01T06:40:31;-1.80;99.90
5358;DHT22;2702;51.014;7.170;2023-03-01T06:42:57;-1.80;99.90
5358;DHT22;2702;51.014;7.170;2023-03-01T06:45:23;-1.80;99.90
5358;DHT22;2702;51.014;7.170;2023-03-01T06:47:50;-1.90;99.90
5358;DHT22;2702;51.014;7.170;2023-03-01T06:50:17;-1.80;99.90
5358;DHT22;2702;51.014;7.170;2023-03-01T06:52:43;-1.80;99.90
5358;DHT22;2702;51.014;7.170;2023-03-01T06:55:11;-1.80;99.90
5358;DHT22;2702;51.014;7.170;2023-03-01T06:57:37;-1.80;99.90
5358;DHT22;2702;51.014;7.170;2023-03-01T07:00:04;-1.80;99.90
5358;DHT22;2702;51.014;7.170;2023-03-01T07:02:30;-1.70;99.90
5358;DHT22;2702;51.014;7.170;2023-03-01T07:04:56;-1.70;99.90
5358;DHT22;2702;51.014;7.170;2023-03-01T07:07:22;-1.60;99.90
5358;DHT22;2702;51.014;7.170;2023-03-01T07:09:49;-1.50;99.90
5358;DHT22;2702;51.014;7.170;2023-03-01T07:12:15;-1.30;99.90
5358;DHT22;2702;51.014;7.170;2023-03-01T07:14:41;-1.20;99.90
5358;DHT22;2702;51.014;7.170;2023-03-01T07:17:07;-1.20;99.90
5358;DHT22;2702;51.014;7.170;2023-03-01T07:19:33;-1.20;99.90
5358;DHT22;2702;51.014;7.170;2023-03-01T07:21:59;-1.20;99.90
5358;DHT22;2702;51.014;7.170;2023-03-01T07:24:25;-1.20;99.90
5358;DHT22;2702;51.014;7.170;2023-03-01T07:26:52;-1.30;99.90
5358;DHT22;2702;51.014;7.170;2023-03-01T07:29:19;-1.30;99.90
5358;DHT22;2702;51.014;7.170;2023-03-01T07:31:45;-1.20;99.90
5358;DHT22;2702;51.014;7.170;2023-03-01T07:34:11;-1.20;99.90
5358;DHT22;2702;51.014;7.170;2023-03-01T07:36:37;-1.10;99.90
5358;DHT22;2702;51.014;7.170;2023-03-01T07:39:05;-1.10;99.90
5358;DHT22;2702;51.014;7.170;2023-03-01T07:41:30;-0.90;99.90
5358;DHT22;2702;51.014;7.170;2023-03-01T07:43:56;-0.90;99.90
5358;DHT22;2702;51.014;7.170;2023-03-01T07:46:22;-0.90;99.90
5358;DHT22;2702;51.014;7.170;2023-03-01T07:48:48;-0.80;99.90
5358;DHT22;2702;51.014;7.170;2023-03-01T07:51:14;-0.90;99.90
5358;DHT22;2702;51.014;7.170;2023-03-01T07:53:40;-0.80;99.90
5358;DHT22;2702;51.014;7.170;2023-03-01T07:56:08;-0.80;99.90
5358;DHT22;2702;51.014;7.170;2023-03-01T07:58:35;-0.70;99.90
5358;DHT22;2702;51.014;7.170;2023-03-01T08:01:06;-0.60;99.90
5358;DHT22;2702;51.014;7.170;2023-03-01T08:03:33;-0.60;99.90
5358;DHT22;2702;51.014;7.170;2023-03-01T08:06:01;-0.50;99.90
5358;DHT22;2702;51.014;7.170;2023-03-01T08:08:27;-0.60;99.90
5358;DHT22;2702;51.014;7.170;2023-03-01T08:10:57;-0.50;99.90
5358;DHT22;2702;51.014;7.170;2023-03-01T08:13:24;-0.40;99.90
5358;DHT22;2702;51.014;7.170;2023-03-01T08:15:50;-0.30;99.90
5358;DHT22;2702;51.014;7.170;2023-03-01T08:18:17;-0.30;99.90
5358;DHT22;2702;51.014;7.170;2023-03-01T08:20:43;-0.30;99.90
5358;DHT22;2702;51.014;7.170;2023-03-01T08:23:10;-0.30;99.90
5358;DHT22;2702;51.014;7.170;2023-03-01T08:25:36;-0.20;99.90
5358;DHT22;2702;51.014;7.170;2023-03-01T08:28:02;-0.10;99.90
5358;DHT22;2702;51.014;7.170;2023-03-01T08:30:28;-0.10;99.90
5358;DHT22;2702;51.014;7.170;2023-03-01T08:32:54;0.00;99.90
5358;DHT22;2702;51.014;7.170;2023-03-01T08:35:20;0.20;99.90
5358;DHT22;2702;51.014;7.170;2023-03-01T08:37:47;0.30;99.90
5358;DHT22;2702;51.014;7.170;2023-03-01T08:40:13;0.30;99.90
5358;DHT22;2702;51.014;7.170;2023-03-01T08:42:40;0.40;99.90
5358;DHT22;2702;51.014;7.170;2023-03-01T08:45:07;0.50;99.90
5358;DHT22;2702;51.014;7.170;2023-03-01T08:47:33;0.60;99.90
5358;DHT22;2702;51.014;7.170;2023-03-01T08:50:00;0.80;99.90
5358;DHT22;2702;51.014;7.170;2023-03-01T08:52:26;0.90;99.90
5358;DHT22;2702;51.014;7.170;2023-03-01T08:54:52;0.90;99.90
5358;DHT22;2702;51.014;7.170;2023-03-01T08:57:18;1.00;99.90
5358;DHT22;2702;51.014;7.170;2023-03-01T08:59:48;1.10;99.90
5358;DHT22;2702;51.014;7.170;2023-03-01T09:02:17;1.30;99.90
5358;DHT22;2702;51.014;7.170;2023-03-01T09:04:43;1.30;99.90
5358;DHT22;2702;51.014;7.170;2023-03-01T09:07:10;1.30;99.90
5358;DHT22;2702;51.014;7.170;2023-03-01T09:09:36;1.50;99.90
5358;DHT22;2702;51.014;7.170;2023-03-01T09:12:03;1.60;99.90
5358;DHT22;2702;51.014;7.170;2023-03-01T09:14:29;1.70;99.90
5358;DHT22;2702;51.014;7.170;2023-03-01T09:16:56;1.80;99.90
5358;DHT22;2702;51.014;7.170;2023-03-01T09:19:22;1.80;99.90
5358;DHT22;2702;51.014;7.170;2023-03-01T09:21:47;1.80;99.90
5358;DHT22;2702;51.014;7.170;2023-03-01T09:24:22;1.90;99.90
5358;DHT22;2702;51.014;7.170;2023-03-01T09:26:49;2.00;99.90
5358;DHT22;2702;51.014;7.170;2023-03-01T09:29:16;2.20;99.90
5358;DHT22;2702;51.014;7.170;2023-03-01T09:31:42;2.40;99.90
5358;DHT22;2702;51.014;7.170;2023-03-01T09:34:09;2.40;99.90
5358;DHT22;2702;51.014;7.170;2023-03-01T09:36:35;2.60;99.90
5358;DHT22;2702;51.014;7.170;2023-03-01T09:39:02;2.60;99.90
5358;DHT22;2702;51.014;7.170;2023-03-01T09:41:45;2.80;99.90
5358;DHT22;2702;51.014;7.170;2023-03-01T09:44:22;2.70;99.90
5358;DHT22;2702;51.014;7.170;2023-03-01T09:46:51;2.60;99.90
5358;DHT22;2702;51.014;7.170;2023-03-01T09:49:26;2.80;99.90
5358;DHT22;2702;51.014;7.170;2023-03-01T09:52:09;2.90;99.90
5358;DHT22;2702;51.014;7.170;2023-03-01T09:54:37;3.10;99.90
5358;DHT22;2702;51.014;7.170;2023-03-01T09:57:20;3.30;99.90
5358;DHT22;2702;51.014;7.170;2023-03-01T10:00:16;3.30;99.90
5358;DHT22;2702;51.014;7.170;2023-03-01T10:02:47;3.30;99.90
5358;DHT22;2702;51.014;7.170;2023-03-01T10:11:28;3.70;99.90
5358;DHT22;2702;51.014;7.170;2023-03-01T10:16:40;4.00;99.90
5358;DHT22;2702;51.014;7.170;2023-03-01T10:19:14;4.20;99.90
5358;DHT22;2702;51.014;7.170;2023-03-01T10:21:45;4.20;99.90
5358;DHT22;2702;51.014;7.170;2023-03-01T10:24:16;4.30;99.90
5358;DHT22;2702;51.014;7.170;2023-03-01T10:26:58;4.30;99.90
5358;DHT22;2702;51.014;7.170;2023-03-01T10:29:39;4.50;99.90
5358;DHT22;2702;51.014;7.170;2023-03-01T10:32:10;4.50;99.90
5358;DHT22;2702;51.014;7.170;2023-03-01T10:34:36;4.50;99.90
5358;DHT22;2702;51.014;7.170;2023-03-01T10:37:16;4.70;99.90
5358;DHT22;2702;51.014;7.170;2023-03-01T10:40:04;4.80;99.90
5358;DHT22;2702;51.014;7.170;2023-03-01T10:42:46;4.80;99.90
5358;DHT22;2702;51.014;7.170;2023-03-01T10:50:34;5.00;99.90
5358;DHT22;2702;51.014;7.170;2023-03-01T10:53:03;5.00;99.90
5358;DHT22;2702;51.014;7.170;2023-03-01T10:55:40;5.00;99.90
5358;DHT22;2702;51.014;7.170;2023-03-01T10:58:24;5.20;99.90
5358;DHT22;2702;51.014;7.170;2023-03-01T11:00:53;5.20;99.90
5358;DHT22;2702;51.014;7.170;2023-03-01T11:03:33;5.40;99.90
5358;DHT22;2702;51.014;7.170;2023-03-01T11:06:03;5.50;99.90
5358;DHT22;2702;51.014;7.170;2023-03-01T11:11:21;5.40;99.90
5358;DHT22;2702;51.014;7.170;2023-03-01T11:14:16;5.50;99.90
5358;DHT22;2702;51.014;7.170;2023-03-01T11:16:45;5.50;99.90
5358;DHT22;2702;51.014;7.170;2023-03-01T11:21:41;5.60;99.90
5358;DHT22;2702;51.014;7.170;2023-03-01T11:24:14;5.70;99.90
5358;DHT22;2702;51.014;7.170;2023-03-01T11:26:47;5.80;99.90
5358;DHT22;2702;51.014;7.170;2023-03-01T11:29:34;6.00;99.90
5358;DHT22;2702;51.014;7.170;2023-03-01T11:32:04;6.10;99.90
5358;DHT22;2702;51.014;7.170;2023-03-01T11:37:35;6.10;99.90
5358;DHT22;2702;51.014;7.170;2023-03-01T11:40:23;6.00;99.90
5358;DHT22;2702;51.014;7.170;2023-03-01T11:43:01;6.10;99.90
5358;DHT22;2702;51.014;7.170;2023-03-01T11:51:25;6.40;99.90
5358;DHT22;2702;51.014;7.170;2023-03-01T11:57:00;6.40;99.90
5358;DHT22;2702;51.014;7.170;2023-03-01T12:02:29;6.40;99.90
5358;DHT22;2702;51.014;7.170;2023-03-01T12:08:29;6.60;99.90
5358;DHT22;2702;51.014;7.170;2023-03-01T12:22:10;6.40;99.90
5358;DHT22;2702;51.014;7.170;2023-03-01T12:33:12;6.60;99.90
5358;DHT22;2702;51.014;7.170;2023-03-01T12:38:50;6.80;99.90
5358;DHT22;2702;51.014;7.170;2023-03-01T12:50:19;6.80;99.90
5358;DHT22;2702;51.014;7.170;2023-03-01T12:52:53;6.90;99.90
5358;DHT22;2702;51.014;7.170;2023-03-01T12:55:36;6.80;99.90
5358;DHT22;2702;51.014;7.170;2023-03-01T13:17:53;7.00;99.90
5358;DHT22;2702;51.014;7.170;2023-03-01T13:26:11;7.30;99.90
5358;DHT22;2702;51.014;7.170;2023-03-01T13:28:47;7.30;99.90
5358;DHT22;2702;51.014;7.170;2023-03-01T13:33:45;7.20;99.90
5358;DHT22;2702;51.014;7.170;2023-03-01T13:39:01;7.40;99.90
5358;DHT22;2702;51.014;7.170;2023-03-01T13:44:38;7.50;99.90
5358;DHT22;2702;51.014;7.170;2023-03-01T13:50:00;7.70;99.90
5358;DHT22;2702;51.014;7.170;2023-03-01T13:58:00;7.60;99.90
5358;DHT22;2702;51.014;7.170;2023-03-01T14:00:39;7.50;99.90
5358;DHT22;2702;51.014;7.170;2023-03-01T14:05:36;7.40;99.90
5358;DHT22;2702;51.014;7.170;2023-03-01T14:08:17;7.50;99.90
5358;DHT22;2702;51.014;7.170;2023-03-01T14:21:12;7.40;99.90
5358;DHT22;2702;51.014;7.170;2023-03-01T14:23:40;7.30;99.90
5358;DHT22;2702;51.014;7.170;2023-03-01T14:26:08;7.20;99.90
5358;DHT22;2702;51.014;7.170;2023-03-01T14:28:38;7.10;99.90
5358;DHT22;2702;51.014;7.170;2023-03-01T14:34:02;6.90;99.90
5358;DHT22;2702;51.014;7.170;2023-03-01T14:36:32;6.90;99.90
5358;DHT22;2702;51.014;7.170;2023-03-01T14:38:58;6.90;99.90
5358;DHT22;2702;51.014;7.170;2023-03-01T14:41:33;6.80;99.90
5358;DHT22;2702;51.014;7.170;2023-03-01T14:44:04;6.80;99.90
5358;DHT22;2702;51.014;7.170;2023-03-01T14:46:39;6.70;99.90
5358;DHT22;2702;51.014;7.170;2023-03-01T14:49:15;6.70;99.90
5358;DHT22;2702;51.014;7.170;2023-03-01T14:51:53;6.60;99.90
5358;DHT22;2702;51.014;7.170;2023-03-01T14:54:24;6.60;99.90
5358;DHT22;2702;51.014;7.170;2023-03-01T14:56:52;6.60;99.90
5358;DHT22;2702;51.014;7.170;2023-03-01T14:59:24;6.70;99.90
5358;DHT22;2702;51.014;7.170;2023-03-01T15:01:53;6.70;99.90
5358;DHT22;2702;51.014;7.170;2023-03-01T15:04:21;6.80;99.90
5358;DHT22;2702;51.014;7.170;2023-03-01T15:06:50;6.70;99.90
5358;DHT22;2702;51.014;7.170;2023-03-01T15:09:17;6.70;99.90
5358;DHT22;2702;51.014;7.170;2023-03-01T15:11:44;6.70;99.90
5358;DHT22;2702;51.014;7.170;2023-03-01T15:14:43;6.60;99.90
5358;DHT22;2702;51.014;7.170;2023-03-01T15:19:53;6.50;99.90
5358;DHT22;2702;51.014;7.170;2023-03-01T15:22:21;6.50;99.90
5358;DHT22;2702;51.014;7.170;2023-03-01T15:24:49;6.50;99.90
5358;DHT22;2702;51.014;7.170;2023-03-01T15:27:24;6.50;99.90
5358;DHT22;2702;51.014;7.170;2023-03-01T15:32:32;6.50;99.90
5358;DHT22;2702;51.014;7.170;2023-03-01T15:35:01;6.50;99.90
5358;DHT22;2702;51.014;7.170;2023-03-01T15:37:48;6.60;99.90
5358;DHT22;2702;51.014;7.170;2023-03-01T15:40:28;6.70;99.90
5358;DHT22;2702;51.014;7.170;2023-03-01T15:43:02;6.70;99.90
5358;DHT22;2702;51.014;7.170;2023-03-01T15:45:30;6.70;99.90
5358;DHT22;2702;51.014;7.170;2023-03-01T15:48:04;6.70;99.90
5358;DHT22;2702;51.014;7.170;2023-03-01T15:50:34;6.70;99.90
5358;DHT22;2702;51.014;7.170;2023-03-01T15:53:05;6.60;99.90
5358;DHT22;2702;51.014;7.170;2023-03-01T15:55:34;6.60;99.90
5358;DHT22;2702;51.014;7.170;2023-03-01T15:58:13;6.60;99.90
5358;DHT22;2702;51.014;7.170;2023-03-01T16:00:40;6.50;99.90
5358;DHT22;2702;51.014;7.170;2023-03-01T16:03:06;6.40;99.90
5358;DHT22;2702;51.014;7.170;2023-03-01T16:05:35;6.40;99.90
5358;DHT22;2702;51.014;7.170;2023-03-01T16:08:02;6.30;99.90
5358;DHT22;2702;51.014;7.170;2023-03-01T16:10:30;6.20;99.90
5358;DHT22;2702;51.014;7.170;2023-03-01T16:12:57;6.30;99.90
5358;DHT22;2702;51.014;7.170;2023-03-01T16:15:31;6.30;99.90
5358;DHT22;2702;51.014;7.170;2023-03-01T16:17:57;6.20;99.90
5358;DHT22;2702;51.014;7.170;2023-03-01T16:20:24;6.20;99.90
5358;DHT22;2702;51.014;7.170;2023-03-01T16:22:51;6.20;99.90
5358;DHT22;2702;51.014;7.170;2023-03-01T16:25:19;6.20;99.90
5358;DHT22;2702;51.014;7.170;2023-03-01T16:27:47;6.00;99.90
5358;DHT22;2702;51.014;7.170;2023-03-01T16:30:16;5.90;99.90
5358;DHT22;2702;51.014;7.170;2023-03-01T16:32:44;6.00;99.90
5358;DHT22;2702;51.014;7.170;2023-03-01T16:35:13;5.90;99.90
5358;DHT22;2702;51.014;7.170;2023-03-01T16:37:40;5.80;99.90
5358;DHT22;2702;51.014;7.170;2023-03-01T16:40:17;5.80;99.90
5358;DHT22;2702;51.014;7.170;2023-03-01T16:42:43;5.80;99.90
5358;DHT22;2702;51.014;7.170;2023-03-01T16:45:10;5.60;99.90
5358;DHT22;2702;51.014;7.170;2023-03-01T16:47:35;5.50;99.90
5358;DHT22;2702;51.014;7.170;2023-03-01T16:50:01;5.50;99.90
5358;DHT22;2702;51.014;7.170;2023-03-01T16:52:27;5.50;99.90
5358;DHT22;2702;51.014;7.170;2023-03-01T16:54:53;5.40;99.90
5358;DHT22;2702;51.014;7.170;2023-03-01T16:57:19;5.40;99.90
5358;DHT22;2702;51.014;7.170;2023-03-01T16:59:45;5.30;99.90
5358;DHT22;2702;51.014;7.170;2023-03-01T17:02:13;5.20;99.90
5358;DHT22;2702;51.014;7.170;2023-03-01T17:04:44;5.20;99.90
5358;DHT22;2702;51.014;7.170;2023-03-01T17:07:10;5.10;99.90
5358;DHT22;2702;51.014;7.170;2023-03-01T17:09:37;5.10;99.90
5358;DHT22;2702;51.014;7.170;2023-03-01T17:12:04;5.00;99.90
5358;DHT22;2702;51.014;7.170;2023-03-01T17:14:30;5.00;99.90
5358;DHT22;2702;51.014;7.170;2023-03-01T17:16:56;4.90;99.90
5358;DHT22;2702;51.014;7.170;2023-03-01T17:19:21;4.90;99.90
5358;DHT22;2702;51.014;7.170;2023-03-01T17:21:47;4.90;99.90
5358;DHT22;2702;51.014;7.170;2023-03-01T17:24:13;4.90;99.90
5358;DHT22;2702;51.014;7.170;2023-03-01T17:26:40;4.80;99.90
5358;DHT22;2702;51.014;7.170;2023-03-01T17:29:06;4.70;99.90
5358;DHT22;2702;51.014;7.170;2023-03-01T17:31:33;4.70;99.90
5358;DHT22;2702;51.014;7.170;2023-03-01T17:33:59;4.70;99.90
5358;DHT22;2702;51.014;7.170;2023-03-01T17:36:25;4.70;99.90
5358;DHT22;2702;51.014;7.170;2023-03-01T17:38:51;4.60;99.90
5358;DHT22;2702;51.014;7.170;2023-03-01T17:41:18;4.60;99.90
5358;DHT22;2702;51.014;7.170;2023-03-01T17:43:45;4.50;99.90
5358;DHT22;2702;51.014;7.170;2023-03-01T17:46:11;4.40;99.90
5358;DHT22;2702;51.014;7.170;2023-03-01T17:48:37;4.40;99.90
5358;DHT22;2702;51.014;7.170;2023-03-01T17:51:10;4.40;99.90
5358;DHT22;2702;51.014;7.170;2023-03-01T17:53:37;4.40;99.90
5358;DHT22;2702;51.014;7.170;2023-03-01T17:56:04;4.30;99.90
5358;DHT22;2702;51.014;7.170;2023-03-01T17:58:31;4.20;99.90
5358;DHT22;2702;51.014;7.170;2023-03-01T18:01:11;4.20;99.90
5358;DHT22;2702;51.014;7.170;2023-03-01T18:03:39;4.20;99.90
5358;DHT22;2702;51.014;7.170;2023-03-01T18:06:20;4.10;99.90
5358;DHT22;2702;51.014;7.170;2023-03-01T18:08:46;4.10;99.90
5358;DHT22;2702;51.014;7.170;2023-03-01T18:11:16;4.00;99.90
5358;DHT22;2702;51.014;7.170;2023-03-01T18:13:42;4.00;99.90
5358;DHT22;2702;51.014;7.170;2023-03-01T18:16:13;4.00;99.90
5358;DHT22;2702;51.014;7.170;2023-03-01T18:18:40;3.90;99.90
5358;DHT22;2702;51.014;7.170;2023-03-01T18:21:06;3.90;99.90
5358;DHT22;2702;51.014;7.170;2023-03-01T18:23:34;3.90;99.90
5358;DHT22;2702;51.014;7.170;2023-03-01T18:26:03;3.80;99.90
5358;DHT22;2702;51.014;7.170;2023-03-01T18:28:30;3.80;99.90
5358;DHT22;2702;51.014;7.170;2023-03-01T18:33:23;3.80;99.90
5358;DHT22;2702;51.014;7.170;2023-03-01T18:35:50;3.80;99.90
5358;DHT22;2702;51.014;7.170;2023-03-01T18:38:16;3.70;99.90
5358;DHT22;2702;51.014;7.170;2023-03-01T18:40:43;3.70;99.90
5358;DHT22;2702;51.014;7.170;2023-03-01T18:43:09;3.70;99.90
5358;DHT22;2702;51.014;7.170;2023-03-01T18:45:35;3.70;99.90
5358;DHT22;2702;51.014;7.170;2023-03-01T18:48:02;3.60;99.90
5358;DHT22;2702;51.014;7.170;2023-03-01T18:50:28;3.50;99.90
5358;DHT22;2702;51.014;7.170;2023-03-01T18:52:54;3.50;99.90